Terminal Aerodrome Forecast
Issued by NWS Memphis, TN

Home | Current Version | Previous Version | Text Only | Print | Product List | Glossary On
Versions: 1 2 3 4 5 6 7 8 9 10 11 12 13
000
FTUS44 KMEG 012000 AAA
TAFJBR
TAF AMD
KJBR 012030Z 0121/0218 18012G21KT P6SM SCT045
     FM020100 17004KT P6SM SCT100
     FM020700 16006KT P6SM BKN045 BKN100
     FM021400 19011KT P6SM VCSH BKN045=

USA.gov is the U.S. government's official web portal to all federal, state and local government web resources and services.